Time;durP1;ratioP1;P1;durP2;ratioP2;P2;SDS_P1;SDS_P2;PMS_P1;PMS_P2;Temp;Humidity;BMP_temperature;BMP_pressure;BME280_temperature;BME280_humidity;BME280_pressure;Samples;Min_cycle;Max_cycle;Signal;HPM_P1;HPM_P2
2022/11/11 00:00:03;;;;;;;6.80;4.47;;;7.60;80.80;;;5.95;100.00;97442.03;4985559;28;20354;-63
2022/11/11 00:02:29;;;;;;;6.72;4.10;;;7.60;80.70;;;5.93;100.00;97436.94;4987420;28;20032;-63
2022/11/11 00:04:54;;;;;;;7.30;4.40;;;7.50;80.90;;;5.91;100.00;97431.00;5007142;28;20380;-64
2022/11/11 00:07:20;;;;;;;7.25;4.22;;;7.50;80.60;;;5.89;100.00;97432.88;5005637;28;20322;-63
2022/11/11 00:09:46;;;;;;;9.45;4.40;;;7.50;80.50;;;5.88;100.00;97433.81;5006172;28;20390;-63
2022/11/11 00:12:12;;;;;;;7.70;4.22;;;7.50;80.70;;;5.85;100.00;97436.69;4987030;28;20025;-64
2022/11/11 00:14:38;;;;;;;4.70;3.38;;;7.40;80.70;;;5.81;100.00;97440.50;4985189;28;20293;-63
2022/11/11 00:25:18;;;;;;;5.93;3.75;;;7.20;79.90;;;5.69;100.00;97428.47;5001763;28;20666;-65
2022/11/11 00:27:43;;;;;;;8.73;4.03;;;7.30;80.20;;;5.67;100.00;97425.16;5003484;28;20098;-63
2022/11/11 00:30:10;;;;;;;6.80;3.95;;;7.20;80.10;;;5.64;100.00;97428.00;4986008;28;20318;-63
2022/11/11 00:32:36;;;;;;;6.53;4.00;;;7.20;80.40;;;5.61;100.00;97421.25;4986360;28;20611;-65
2022/11/11 00:37:49;;;;;;;8.27;4.97;;;7.20;81.20;;;5.59;100.00;97414.50;5003670;28;20040;-63
2022/11/11 00:40:16;;;;;;;8.80;5.85;;;7.20;81.60;;;5.55;100.00;97403.50;5001486;28;20059;-63
2022/11/11 00:42:42;;;;;;;10.45;6.75;;;7.10;82.40;;;5.56;100.00;97404.31;4987080;28;20554;-63
2022/11/11 00:45:08;;;;;;;9.80;5.82;;;7.10;82.80;;;5.56;100.00;97404.31;5002389;28;20058;-64
2022/11/11 00:53:17;;;;;;;11.18;6.05;;;7.10;83.30;;;5.53;100.00;97401.00;5000491;28;20512;-63
2022/11/11 00:55:43;;;;;;;10.35;6.38;;;7.10;83.10;;;5.53;100.00;97401.00;4998500;28;20055;-63
2022/11/11 00:58:08;;;;;;;9.98;6.43;;;7.10;83.10;;;5.54;100.00;97404.44;4983913;28;20245;-64
2022/11/11 01:00:34;;;;;;;9.38;6.25;;;7.10;82.80;;;5.55;100.00;97408.72;5002712;28;20465;-64
2022/11/11 01:03:00;;;;;;;9.27;6.32;;;7.20;82.60;;;5.56;100.00;97404.31;4984237;28;20361;-63
2022/11/11 01:05:26;;;;;;;7.78;5.78;;;7.20;82.40;;;5.58;100.00;97418.06;5001832;28;20453;-63
2022/11/11 01:07:52;;;;;;;9.15;5.55;;;7.20;82.10;;;5.57;100.00;97421.63;5003466;28;20110;-63
2022/11/11 01:10:37;;;;;;;9.70;5.60;;;7.20;81.70;;;5.55;100.00;97424.38;5005835;28;20028;-64
2022/11/11 01:13:13;;;;;;;8.18;5.68;;;7.10;81.10;;;5.50;100.00;97431.75;5016451;28;20059;-65
2022/11/11 01:15:40;;;;;;;6.43;4.90;;;7.10;80.90;;;5.43;100.00;97435.78;5006115;28;20033;-64
2022/11/11 01:18:07;;;;;;;9.15;5.20;;;7.00;80.30;;;5.36;100.00;97435.47;4983872;28;20144;-65
2022/11/11 01:20:33;;;;;;;7.32;5.00;;;6.90;80.30;;;5.33;100.00;97432.28;4986749;28;20043;-65
2022/11/11 01:22:58;;;;;;;6.93;4.40;;;6.90;80.50;;;5.30;100.00;97427.31;4969274;28;20033;-65
2022/11/11 01:25:24;;;;;;;63.80;40.05;;;6.80;80.50;;;5.26;100.00;97429.34;4971891;28;20355;-64
2022/11/11 01:27:50;;;;;;;39.15;25.35;;;6.80;81.20;;;5.21;100.00;97434.13;4989162;28;20354;-64
2022/11/11 01:30:16;;;;;;;10.85;8.23;;;6.80;81.00;;;5.17;100.00;97433.50;4979259;28;20044;-65
2022/11/11 01:32:42;;;;;;;5.72;4.25;;;6.80;80.60;;;5.13;100.00;97439.94;4974675;28;20024;-65
2022/11/11 01:35:08;;;;;;;8.98;4.82;;;6.70;79.80;;;5.10;100.00;97434.13;5004016;28;20362;-64
2022/11/11 01:37:34;;;;;;;8.10;4.38;;;6.70;79.80;;;5.06;100.00;97427.50;5003883;28;20033;-65
2022/11/11 01:40:01;;;;;;;6.80;4.55;;;6.60;80.30;;;5.01;100.00;97429.66;5020515;28;20036;-64
2022/11/11 01:42:27;;;;;;;6.80;4.00;;;6.60;80.70;;;4.97;100.00;97433.44;4990364;28;20063;-65
2022/11/11 01:44:52;;;;;;;6.32;4.15;;;6.60;80.90;;;4.93;100.00;97432.84;5004524;28;20470;-65
2022/11/11 01:47:18;;;;;;;8.18;4.00;;;6.60;81.00;;;4.90;100.00;97428.72;5004708;28;20036;-65
2022/11/11 01:50:06;;;;;;;5.53;3.80;;;6.50;81.00;;;4.88;100.00;97427.19;4988821;28;20102;-65
2022/11/11 01:52:35;;;;;;;6.30;3.85;;;6.50;81.10;;;4.84;100.00;97423.97;4986675;28;20029;-65
2022/11/11 01:55:02;;;;;;;7.50;4.15;;;6.50;81.10;;;4.84;100.00;97416.16;5002511;28;20020;-65
2022/11/11 01:57:51;;;;;;;6.60;4.53;;;6.50;81.20;;;4.83;100.00;97411.91;5005906;28;20052;-65
2022/11/11 02:00:18;;;;;;;6.78;3.50;;;6.50;81.40;;;4.81;100.00;97413.81;4997284;28;20052;-65
2022/11/11 02:03:00;;;;;;;7.07;3.70;;;6.40;81.30;;;4.79;100.00;97420.91;5002618;28;20032;-65
2022/11/11 02:05:42;;;;;;;8.05;4.40;;;6.40;81.10;;;4.76;100.00;97421.16;4972732;28;20064;-65
2022/11/11 02:08:31;;;;;;;6.20;4.03;;;6.40;81.20;;;4.74;100.00;97417.81;5003369;28;20069;-65
2022/11/11 02:11:06;;;;;;;4.78;3.60;;;6.40;81.30;;;4.72;100.00;97414.50;4969685;28;20029;-65
2022/11/11 02:16:17;;;;;;;5.15;3.92;;;6.40;81.10;;;4.67;100.00;97411.44;4971041;28;20712;-65
2022/11/11 02:18:43;;;;;;;5.97;4.20;;;6.40;81.30;;;4.64;100.00;97409.06;4987527;28;20059;-65
2022/11/11 02:21:16;;;;;;;5.70;4.18;;;6.30;81.20;;;4.64;100.00;97410.84;4987635;28;20036;-65
2022/11/11 02:24:08;;;;;;;5.60;3.85;;;6.30;81.00;;;4.60;100.00;97410.28;5003799;28;20029;-65
2022/11/11 02:26:35;;;;;;;10.02;3.90;;;6.30;81.30;;;4.59;100.00;97413.81;4985127;28;20118;-64
2022/11/11 02:29:01;;;;;;;5.68;3.60;;;6.30;81.30;;;4.58;100.00;97412.16;4970798;28;20635;-65
2022/11/11 02:31:30;;;;;;;5.57;3.75;;;6.30;81.70;;;4.57;100.00;97413.13;5001590;28;20149;-65
2022/11/11 02:33:56;;;;;;;4.93;3.33;;;6.30;81.60;;;4.56;100.00;97420.13;4948008;28;20029;-65
2022/11/11 02:36:22;;;;;;;4.60;3.40;;;6.30;81.50;;;4.56;100.00;97424.50;4976012;28;20091;-64
2022/11/11 02:38:48;;;;;;;5.07;3.40;;;6.30;81.40;;;4.56;100.00;97429.72;4949194;28;20147;-64
2022/11/11 02:43:58;;;;;;;4.97;3.15;;;6.30;80.80;;;4.54;100.00;97431.59;4987959;28;20166;-65
2022/11/11 02:46:24;;;;;;;3.97;3.00;;;6.20;80.80;;;4.52;100.00;97433.47;4954546;28;20452;-65
2022/11/11 02:48:50;;;;;;;3.95;2.90;;;6.20;80.30;;;4.49;100.00;97433.72;5006438;28;20138;-65
2022/11/11 02:51:16;;;;;;;3.63;2.33;;;6.10;79.70;;;4.46;100.00;97436.56;4989054;28;20037;-65
2022/11/11 02:53:42;;;;;;;4.35;2.35;;;6.10;79.20;;;4.41;100.00;97436.09;5003699;28;20059;-65
2022/11/11 02:56:08;;;;;;;3.55;2.60;;;6.10;79.10;;;4.37;100.00;97437.28;4985156;28;20048;-64
2022/11/11 02:58:34;;;;;;;3.28;2.80;;;6.00;79.20;;;4.32;100.00;97444.63;4986350;28;20312;-66
2022/11/11 03:01:00;;;;;;;2.78;2.20;;;6.00;79.30;;;4.28;100.00;97442.22;4970137;28;20362;-66
2022/11/11 03:03:26;;;;;;;3.45;2.45;;;5.90;79.50;;;4.26;100.00;97456.31;4989261;28;20033;-66
2022/11/11 03:05:52;;;;;;;4.53;2.75;;;5.90;79.60;;;4.22;100.00;97463.53;4987930;28;20112;-64
2022/11/11 03:08:17;;;;;;;3.03;2.60;;;5.90;79.60;;;4.19;100.00;97468.97;4990044;28;20319;-64
2022/11/11 03:10:43;;;;;;;5.22;2.80;;;5.80;79.90;;;4.18;100.00;97471.69;5004829;28;20384;-64
2022/11/11 03:13:09;;;;;;;5.07;3.67;;;5.80;80.10;;;4.17;100.00;97476.06;4988828;28;20158;-64
2022/11/11 03:15:35;;;;;;;4.75;2.90;;;5.90;80.20;;;4.15;100.00;97466.72;4971500;28;20358;-64
2022/11/11 03:18:01;;;;;;;5.00;3.33;;;5.80;80.60;;;4.13;100.00;97479.03;4972777;28;20409;-64
2022/11/11 03:23:13;;;;;;;4.82;3.70;;;5.70;80.90;;;4.08;100.00;97479.38;4986378;28;20218;-64
2022/11/11 03:25:46;;;;;;;5.57;3.92;;;5.80;80.90;;;4.06;100.00;97486.44;4976381;28;20041;-65
2022/11/11 03:28:19;;;;;;;5.03;3.80;;;5.70;81.10;;;4.06;100.00;97483.03;4985489;28;20211;-64
2022/11/11 03:30:48;;;;;;;8.18;5.78;;;5.70;81.20;;;4.03;100.00;97478.03;4972601;28;20110;-64
2022/11/11 03:33:14;;;;;;;28.63;20.55;;;5.70;81.30;;;4.03;100.00;97485.84;4969623;28;20036;-64
2022/11/11 03:35:41;;;;;;;32.17;22.42;;;5.60;81.90;;;4.04;100.00;97483.13;5006986;28;20037;-64
2022/11/11 03:38:15;;;;;;;14.43;9.88;;;5.70;82.20;;;4.02;100.00;97484.19;5002471;28;20033;-65
2022/11/11 03:40:48;;;;;;;36.08;23.90;;;5.70;81.80;;;4.01;100.00;97483.38;5005496;28;20651;-65
2022/11/11 03:43:15;;;;;;;48.80;30.65;;;5.70;81.50;;;4.01;100.00;97491.19;4989586;28;20723;-65
2022/11/11 03:45:42;;;;;;;34.47;23.60;;;5.70;81.20;;;4.00;100.00;97486.91;4969765;28;20040;-65
2022/11/11 03:48:08;;;;;;;10.77;7.25;;;5.70;81.40;;;3.97;100.00;97489.75;4985029;28;20037;-66
2022/11/11 03:50:33;;;;;;;5.65;4.60;;;5.70;81.20;;;3.91;100.00;97493.66;4985979;28;20032;-65
2022/11/11 03:52:59;;;;;;;17.85;4.35;;;5.60;81.30;;;3.92;100.00;97502.28;4956155;28;20186;-65
2022/11/11 03:55:26;;;;;;;5.00;4.18;;;5.60;81.70;;;3.88;100.00;97498.25;5002754;28;20490;-65
2022/11/11 03:57:52;;;;;;;10.48;4.55;;;5.60;81.90;;;3.86;100.00;97497.53;4985858;28;20060;-64
2022/11/11 04:00:23;;;;;;;8.20;4.88;;;5.50;81.80;;;3.85;100.00;97488.91;4984054;28;20036;-64
2022/11/11 04:11:13;;;;;;;26.25;13.10;;;5.40;82.50;;;3.72;100.00;97471.69;4988386;28;20199;-64
2022/11/11 04:16:28;;;;;;;16.23;9.45;;;5.40;82.90;;;3.68;100.00;97477.13;4992677;28;20047;-64
2022/11/11 04:21:44;;;;;;;11.07;6.10;;;5.30;82.90;;;3.62;100.00;97477.56;5007707;28;20848;-65
2022/11/11 04:27:05;;;;;;;19.80;10.05;;;5.40;83.30;;;3.66;100.00;97476.41;5021771;28;20069;-64
2022/11/11 04:29:31;;;;;;;29.35;22.23;;;5.40;83.60;;;3.69;100.00;97481.38;5003551;28;20111;-66
2022/11/11 04:34:55;;;;;;;18.88;11.00;;;5.50;83.60;;;3.75;100.00;97481.88;4938331;28;20305;-74
2022/11/11 04:37:22;;;;;;;12.80;8.90;;;5.50;82.80;;;3.75;100.00;97480.09;4928993;28;20416;-70
2022/11/11 04:42:33;;;;;;;17.42;6.07;;;5.50;82.10;;;3.74;100.00;97482.81;4930203;28;20389;-74
2022/11/11 04:48:04;;;;;;;9.52;5.68;;;5.40;82.00;;;3.67;100.00;97488.47;4916542;28;20517;-65
2022/11/11 04:50:38;;;;;;;7.20;5.70;;;5.40;81.90;;;3.69;100.00;97483.16;4933295;28;20496;-66
2022/11/11 04:53:06;;;;;;;24.45;6.15;;;5.40;82.00;;;3.65;100.00;97479.13;4923223;28;20563;-65
2022/11/11 04:58:19;;;;;;;12.85;5.50;;;5.30;82.30;;;3.57;100.00;97490.06;4934755;28;20557;-66
2022/11/11 05:00:45;;;;;;;15.18;6.20;;;5.30;82.30;;;3.56;100.00;97491.00;4959618;28;20507;-66
2022/11/11 05:03:15;;;;;;;9.13;4.78;;;5.20;82.70;;;3.54;100.00;97492.91;4928399;28;20662;-66
2022/11/11 05:09:00;;;;;;;17.25;5.25;;;5.20;83.00;;;3.56;100.00;97493.59;4915200;28;20377;-66
2022/11/11 05:11:34;;;;;;;11.98;5.05;;;5.30;82.80;;;3.52;100.00;97492.19;4906707;28;20586;-65
2022/11/11 05:22:31;;;;;;;6.68;4.38;;;5.10;81.80;;;3.42;100.00;97483.41;4935337;28;20214;-69
2022/11/11 05:27:42;;;;;;;9.60;4.15;;;5.10;81.60;;;3.42;100.00;97493.78;4920394;28;20598;-66
2022/11/11 05:30:11;;;;;;;15.93;4.00;;;5.10;81.60;;;3.41;100.00;97497.34;4922547;28;20694;-67
2022/11/11 05:32:38;;;;;;;7.55;5.35;;;5.10;81.70;;;3.41;100.00;97497.34;4925215;28;20306;-66
2022/11/11 05:35:04;;;;;;;19.50;11.65;;;5.20;82.20;;;3.41;100.00;97505.16;4940629;28;20346;-67
2022/11/11 05:37:31;;;;;;;18.85;12.57;;;5.20;82.20;;;3.44;100.00;97507.53;4911745;28;20286;-66
2022/11/11 05:39:57;;;;;;;29.25;17.05;;;5.20;82.40;;;3.43;100.00;97511.06;4940078;28;20381;-70
2022/11/11 05:42:24;;;;;;;27.05;17.20;;;5.20;81.90;;;3.41;100.00;97512.94;4918498;28;21110;-69
2022/11/11 05:44:55;;;;;;;8.77;5.80;;;5.10;81.80;;;3.39;100.00;97520.00;4922569;28;20344;-70
2022/11/11 05:47:21;;;;;;;8.02;3.83;;;5.10;81.50;;;3.38;100.00;97518.34;4923299;28;20197;-74
2022/11/11 05:49:47;;;;;;;6.40;3.35;;;5.10;81.10;;;3.35;100.00;97523.75;4938623;28;20211;-76
2022/11/11 05:52:17;;;;;;;4.90;3.50;;;5.10;81.00;;;3.32;100.00;97524.00;4900278;28;20359;-72
2022/11/11 05:54:44;;;;;;;5.75;3.20;;;5.10;81.00;;;3.30;100.00;97520.66;4906499;28;20333;-70
2022/11/11 05:57:10;;;;;;;4.70;3.25;;;5.00;81.20;;;3.28;100.00;97523.38;4911231;28;20320;-72
2022/11/11 05:59:36;;;;;;;4.15;3.08;;;5.00;81.50;;;3.28;100.00;97525.16;4920499;28;20390;-73
2022/11/11 06:02:02;;;;;;;5.03;3.22;;;5.00;81.70;;;3.29;100.00;97526.81;4919864;28;20323;-74
2022/11/11 06:04:29;;;;;;;4.15;2.90;;;5.10;81.70;;;3.31;100.00;97522.31;4923136;28;20370;-68
2022/11/11 06:06:55;;;;;;;4.40;3.45;;;5.10;81.80;;;3.31;100.00;97533.56;4938575;28;20507;-68
2022/11/11 06:09:21;;;;;;;12.45;4.00;;;5.10;82.00;;;3.33;100.00;97536.06;4906897;28;20413;-69
2022/11/11 06:11:47;;;;;;;10.50;3.97;;;5.10;82.50;;;3.32;100.00;97543.03;4959928;28;20475;-63
2022/11/11 06:14:13;;;;;;;8.25;4.13;;;5.10;82.30;;;3.35;100.00;97554.97;4896964;28;20421;-66
2022/11/11 06:16:39;;;;;;;4.68;3.70;;;5.20;82.20;;;3.38;100.00;97560.78;4917526;28;20481;-66
2022/11/11 06:19:05;;;;;;;6.43;3.80;;;5.20;82.20;;;3.41;100.00;97571.94;4908073;28;20897;-65
2022/11/11 06:21:55;;;;;;;6.47;3.47;;;5.20;82.20;;;3.41;100.00;97572.78;4929614;28;20426;-63
2022/11/11 06:24:17;;;;;;;8.57;3.90;;;5.30;82.30;;;3.43;100.00;97583.06;4939174;28;20200;-64
2022/11/11 06:26:43;;;;;;;3.97;3.30;;;5.20;82.20;;;3.43;100.00;97583.91;4904952;28;20717;-63
2022/11/11 06:29:09;;;;;;;32.45;15.95;;;5.20;82.30;;;3.46;100.00;97594.09;4891551;28;20353;-64
2022/11/11 06:31:36;;;;;;;32.38;11.13;;;5.30;82.90;;;3.45;100.00;97597.63;4908780;28;20473;-64
2022/11/11 06:34:02;;;;;;;25.20;6.97;;;5.30;83.00;;;3.47;100.00;97595.75;4904095;28;20321;-62
2022/11/11 06:36:28;;;;;;;13.23;5.07;;;5.30;83.00;;;3.50;100.00;97598.13;4924825;28;20426;-65
2022/11/11 06:38:54;;;;;;;24.17;5.63;;;5.40;82.80;;;3.53;100.00;97592.69;4921696;28;20346;-67
2022/11/11 06:41:23;;;;;;;6.47;4.40;;;5.40;82.40;;;3.55;100.00;97595.19;4906816;28;20388;-65
2022/11/11 06:43:49;;;;;;;13.23;4.53;;;5.50;82.20;;;3.57;100.00;97601.13;4907255;28;20378;-64
2022/11/11 06:46:24;;;;;;;35.70;4.93;;;5.50;82.20;;;3.60;100.00;97606.94;4904854;28;20315;-66
2022/11/11 06:48:51;;;;;;;5.90;4.10;;;5.50;81.70;;;3.60;100.00;97612.13;4904190;28;20338;-63
2022/11/11 06:51:17;;;;;;;19.52;4.00;;;5.50;82.10;;;3.64;100.00;97616.19;4907045;28;20751;-62
2022/11/11 06:53:43;;;;;;;5.40;3.40;;;5.60;81.90;;;3.69;100.00;97621.91;4920551;28;20269;-65
2022/11/11 06:56:11;;;;;;;22.17;3.80;;;5.60;81.70;;;3.71;100.00;97623.56;4920845;28;20587;-65
2022/11/11 06:58:37;;;;;;;6.38;4.05;;;5.60;81.30;;;3.71;100.00;97628.78;4925598;28;20366;-64
2022/11/11 07:01:05;;;;;;;32.70;3.55;;;5.70;81.30;;;3.75;100.00;97625.00;4895097;28;20428;-66
2022/11/11 07:03:31;;;;;;;5.00;3.65;;;5.80;81.20;;;3.76;100.00;97627.50;4907166;28;20202;-63
2022/11/11 07:06:00;;;;;;;5.47;3.80;;;5.70;80.90;;;3.78;100.00;97628.22;4905620;28;20791;-63
2022/11/11 07:08:26;;;;;;;4.30;3.40;;;5.80;81.10;;;3.82;100.00;97631.44;4926624;28;20557;-65
2022/11/11 07:10:52;;;;;;;5.07;3.60;;;5.80;81.20;;;3.85;100.00;97631.22;4967315;28;20035;-61
2022/11/11 07:13:18;;;;;;;11.90;4.10;;;5.90;81.10;;;3.85;100.00;97637.28;4992138;28;20451;-63
2022/11/11 07:15:44;;;;;;;18.15;4.22;;;5.90;80.80;;;3.87;100.00;97629.34;4976133;28;20346;-62
2022/11/11 07:18:10;;;;;;;12.88;4.68;;;5.90;80.90;;;3.87;100.00;97637.16;4996761;28;20528;-61
2022/11/11 07:20:36;;;;;;;7.28;4.70;;;5.90;80.80;;;3.90;100.00;97644.75;4997382;28;20426;-63
2022/11/11 07:23:04;;;;;;;10.95;4.88;;;5.90;81.00;;;3.93;100.00;97644.53;4926263;28;20357;-63
2022/11/11 07:25:30;;;;;;;16.08;5.05;;;6.00;81.00;;;3.98;100.00;97643.25;4904310;28;20435;-63
2022/11/11 07:27:56;;;;;;;9.68;4.72;;;6.10;81.00;;;4.03;100.00;97640.31;4935280;28;20672;-63
2022/11/11 07:30:22;;;;;;;8.18;4.47;;;6.10;80.50;;;4.07;100.00;97633.09;4911564;28;20445;-63
2022/11/11 07:32:51;;;;;;;7.60;4.32;;;6.20;80.40;;;4.15;100.00;97642.03;4892712;28;20506;-63
2022/11/11 07:35:17;;;;;;;11.75;5.22;;;6.40;80.20;;;4.19;100.00;97635.66;4894459;28;20546;-62
2022/11/11 07:37:44;;;;;;;21.05;5.43;;;6.40;79.90;;;4.25;100.00;97630.00;4891996;28;20397;-63
2022/11/11 07:40:12;;;;;;;10.43;5.07;;;6.40;79.90;;;4.33;100.00;97637.25;4915050;28;20472;-62
2022/11/11 07:42:39;;;;;;;7.88;5.07;;;6.60;80.10;;;4.44;100.00;97639.06;4924023;28;20832;-63
2022/11/11 07:45:05;;;;;;;8.77;5.20;;;6.70;79.80;;;4.51;100.00;97638.50;4910764;28;20447;-62
2022/11/11 07:47:33;;;;;;;11.30;6.82;;;6.80;79.40;;;4.60;100.00;97629.19;4907562;28;20347;-62
2022/11/11 07:50:00;;;;;;;13.95;6.90;;;6.90;78.70;;;4.69;100.00;97633.69;4934136;28;20334;-62
2022/11/11 07:52:26;;;;;;;13.48;6.75;;;7.10;78.30;;;4.75;100.00;97633.25;4915055;28;20339;-63
2022/11/11 07:54:55;;;;;;;12.43;7.05;;;7.20;77.80;;;4.84;100.00;97637.78;4905209;28;20443;-63
2022/11/11 07:57:22;;;;;;;12.40;6.60;;;7.30;77.30;;;4.91;100.00;97641.56;4899027;28;20511;-66
2022/11/11 07:59:55;;;;;;;11.68;5.88;;;7.30;77.10;;;5.04;100.00;97638.03;4913106;28;20501;-64
2022/11/11 08:02:22;;;;;;;9.10;5.65;;;7.40;76.80;;;5.10;100.00;97637.56;4876283;28;20505;-64
2022/11/11 08:04:48;;;;;;;15.25;6.22;;;7.40;76.60;;;5.13;100.00;97627.72;4907080;28;20389;-65
2022/11/11 08:07:14;;;;;;;8.77;6.20;;;7.20;76.90;;;5.14;100.00;97618.94;4917318;28;20812;-63
2022/11/11 08:09:40;;;;;;;8.35;5.75;;;7.20;77.40;;;5.13;100.00;97626.91;4899367;28;20699;-63
2022/11/11 08:14:52;;;;;;;19.42;6.28;;;6.80;77.20;;;4.93;100.00;97615.38;4924593;28;20388;-62
2022/11/11 08:17:18;;;;;;;36.75;6.20;;;6.60;78.00;;;4.86;100.00;97620.22;4921429;28;20455;-64
2022/11/11 08:19:44;;;;;;;15.30;6.07;;;6.60;78.00;;;4.80;100.00;97620.69;4937576;28;20314;-63
2022/11/11 08:22:11;;;;;;;9.32;5.68;;;6.60;78.50;;;4.80;100.00;97625.91;4923784;28;20359;-62
2022/11/11 08:24:37;;;;;;;6.63;5.25;;;6.70;78.30;;;4.81;100.00;97621.53;4911143;28;20616;-64
2022/11/11 08:27:03;;;;;;;23.83;5.82;;;6.90;78.30;;;4.82;100.00;97612.75;4937746;28;20751;-62
2022/11/11 08:29:29;;;;;;;19.63;5.20;;;6.80;77.90;;;4.82;100.00;97621.41;4887524;28;20377;-64
2022/11/11 08:31:56;;;;;;;20.02;4.97;;;6.90;77.70;;;4.83;100.00;97615.25;4896166;28;20467;-63
2022/11/11 08:34:22;;;;;;;37.20;5.30;;;6.90;77.30;;;4.83;100.00;97615.25;4936729;28;20545;-63
2022/11/11 08:36:48;;;;;;;19.00;4.80;;;6.90;77.60;;;4.86;100.00;97612.41;4912188;28;20428;-63
2022/11/11 08:39:15;;;;;;;11.57;4.60;;;7.00;77.30;;;4.91;100.00;97606.84;4927947;28;20347;-63
2022/11/11 08:41:41;;;;;;;11.13;4.30;;;7.20;76.90;;;4.98;100.00;97599.38;4908828;28;20339;-64
2022/11/11 08:44:08;;;;;;;9.38;4.15;;;7.50;76.40;;;5.07;100.00;97606.50;4928037;28;20377;-63
2022/11/11 08:46:34;;;;;;;5.50;4.28;;;7.80;75.30;;;5.20;100.00;97597.63;4919519;28;20451;-63
2022/11/11 08:49:00;;;;;;;7.45;4.18;;;8.10;74.40;;;5.38;100.00;97600.56;4897549;28;20571;-63
2022/11/11 08:51:26;;;;;;;7.43;4.40;;;8.60;73.50;;;5.59;100.00;97602.44;4928293;28;20552;-63
2022/11/11 08:53:53;;;;;;;6.35;4.65;;;9.00;72.40;;;5.80;100.00;97591.13;4908788;28;20881;-64
2022/11/11 08:56:19;;;;;;;6.07;4.07;;;9.40;71.00;;;6.04;100.00;97584.91;4918056;28;20348;-67
2022/11/11 08:58:45;;;;;;;4.93;3.78;;;9.70;69.60;;;6.28;100.00;97595.16;4916309;28;20385;-67
2022/11/11 09:01:12;;;;;;;5.20;3.58;;;10.10;68.60;;;6.45;100.00;97597.22;4893896;28;20366;-62
2022/11/11 09:03:42;;;;;;;4.70;3.75;;;10.20;67.90;;;6.66;100.00;97595.44;4905385;28;20845;-63
2022/11/11 09:06:10;;;;;;;5.70;4.40;;;10.60;67.20;;;6.90;100.00;97604.81;4917280;28;20079;-63
2022/11/11 09:08:36;;;;;;;5.15;3.42;;;11.10;66.30;;;7.19;100.00;97608.41;4917435;28;20383;-64
2022/11/11 09:11:02;;;;;;;5.18;3.28;;;11.70;64.80;;;7.46;100.00;97610.44;4910090;28;20353;-64
2022/11/11 09:13:28;;;;;;;5.32;3.53;;;12.10;62.50;;;7.73;100.00;97616.88;4936785;28;20815;-63
2022/11/11 09:15:54;;;;;;;5.97;3.90;;;12.40;62.30;;;8.02;100.00;97614.31;4931140;28;20763;-64
2022/11/11 09:18:20;;;;;;;4.43;3.10;;;13.00;60.10;;;8.30;100.00;97621.38;4948371;28;20720;-63
2022/11/11 09:20:46;;;;;;;5.18;3.70;;;13.60;59.10;;;8.58;100.00;97617.13;4921727;28;20342;-65
2022/11/11 09:23:13;;;;;;;12.00;3.65;;;13.80;57.20;;;8.79;100.00;97622.19;4916858;28;20335;-64
2022/11/11 09:25:39;;;;;;;4.47;3.33;;;13.70;57.20;;;9.00;100.00;97622.03;4921480;28;20747;-64
2022/11/11 09:28:06;;;;;;;5.55;4.10;;;13.60;57.30;;;9.14;100.00;97616.34;4912351;28;20334;-65
2022/11/11 09:30:32;;;;;;;4.68;3.50;;;13.40;58.60;;;9.28;100.00;97617.66;4898263;28;20351;-62
2022/11/11 09:33:02;;;;;;;5.07;3.63;;;13.20;60.00;;;9.38;97.06;97598.28;4916397;28;20283;-64
2022/11/11 09:35:29;;;;;;;4.63;3.37;;;13.10;59.70;;;9.46;97.86;97610.69;4910129;28;20432;-64
2022/11/11 09:37:56;;;;;;;5.50;3.63;;;13.10;59.40;;;9.56;97.23;97608.88;4934120;28;20509;-64
2022/11/11 09:40:24;;;;;;;4.93;2.95;;;13.20;59.80;;;9.61;97.51;97614.50;4914153;28;20347;-64
2022/11/11 09:43:04;;;;;;;4.05;3.17;;;13.20;59.40;;;9.65;92.77;97620.28;4927255;28;20302;-63
2022/11/11 09:45:41;;;;;;;4.35;3.38;;;13.00;59.70;;;9.65;95.29;97620.28;4912722;28;20339;-63
2022/11/11 09:49:00;;;;;;;4.10;3.22;;;12.90;60.60;;;9.72;93.49;97616.09;4944102;28;20763;-63
2022/11/11 09:51:38;;;;;;;15.52;4.50;;;13.10;60.60;;;9.76;94.20;97626.19;4941614;28;20067;-63
2022/11/11 09:54:07;;;;;;;6.22;3.28;;;13.10;60.30;;;9.78;93.93;97626.88;4898886;28;20358;-61
2022/11/11 09:56:33;;;;;;;5.10;3.42;;;13.20;60.20;;;9.89;94.03;97627.63;4912769;28;20494;-62
2022/11/11 09:59:16;;;;;;;5.60;3.10;;;13.70;59.20;;;10.04;92.48;97631.44;4927772;28;20341;-62
2022/11/11 10:01:53;;;;;;;4.68;3.03;;;14.10;58.40;;;10.21;92.02;97622.78;4928024;28;20350;-63
2022/11/11 10:04:32;;;;;;;4.22;3.15;;;14.60;56.00;;;10.41;89.76;97626.91;4915062;28;20505;-62
2022/11/11 10:07:08;;;;;;;4.88;3.25;;;15.20;54.90;;;10.65;89.44;97623.66;4926540;28;20424;-63
2022/11/11 10:10:20;;;;;;;3.35;2.80;;;16.10;52.30;;;10.97;87.71;97615.19;4906492;28;20426;-63
2022/11/11 10:12:56;;;;;;;3.58;2.97;;;16.80;50.30;;;11.36;87.83;97612.13;4933201;28;20635;-64
2022/11/11 10:15:35;;;;;;;4.22;2.70;;;17.10;49.00;;;11.61;87.79;97608.63;4907120;28;20579;-62
2022/11/11 10:18:22;;;;;;;4.13;2.95;;;17.00;49.50;;;11.85;85.32;97607.09;4902857;28;20400;-62
2022/11/11 10:20:55;;;;;;;3.90;3.03;;;16.90;49.70;;;12.02;83.96;97603.53;4927401;28;20354;-63
2022/11/11 10:23:35;;;;;;;3.65;2.92;;;16.90;49.20;;;12.23;83.03;97606.56;4890704;28;20371;-64
2022/11/11 10:26:15;;;;;;;4.75;2.95;;;17.50;48.70;;;12.46;80.24;97609.38;4906176;28;20352;-62
2022/11/11 10:28:42;;;;;;;4.63;3.28;;;17.80;47.00;;;12.62;83.13;97613.84;4910956;28;20339;-63
2022/11/11 10:31:15;;;;;;;3.35;3.00;;;18.00;46.60;;;12.74;79.33;97609.88;4911816;28;20331;-62
2022/11/11 10:33:49;;;;;;;4.20;3.50;;;17.40;47.80;;;12.80;79.38;97601.28;4908344;28;20461;-62
2022/11/11 10:36:20;;;;;;;5.75;3.38;;;16.90;49.50;;;12.83;78.98;97603.59;4926404;28;20484;-66
2022/11/11 10:39:03;;;;;;;3.28;2.80;;;16.40;50.80;;;12.79;77.98;97612.84;4908042;28;20410;-67
2022/11/11 10:41:46;;;;;;;4.68;3.80;;;16.40;51.00;;;12.79;77.57;97607.56;4901260;28;20312;-65
2022/11/11 10:44:27;;;;;;;3.78;2.78;;;16.30;52.00;;;12.72;79.50;97614.50;4922369;28;20513;-66
2022/11/11 10:47:41;;;;;;;3.20;2.53;;;16.30;52.80;;;12.72;78.52;97614.50;4923972;28;20311;-68
2022/11/11 10:50:48;;;;;;;4.93;3.10;;;16.30;52.60;;;12.79;79.38;97618.13;4926490;28;20327;-64
2022/11/11 10:53:23;;;;;;;2.90;2.60;;;16.50;53.00;;;12.93;81.49;97615.81;4910853;28;20362;-72
2022/11/11 10:56:15;;;;;;;3.97;3.00;;;17.10;52.50;;;13.09;79.66;97621.06;4911567;28;20527;-73
2022/11/11 10:58:51;;;;;;;4.65;2.47;;;17.60;50.70;;;13.24;80.63;97630.00;4941137;28;20327;-73
2022/11/11 11:01:26;;;;;;;3.90;2.83;;;17.90;49.60;;;13.40;80.07;97619.41;4907528;28;20351;-70
2022/11/11 11:04:08;;;;;;;3.63;2.40;;;18.10;49.80;;;13.66;80.43;97620.97;4904219;28;20362;-70
2022/11/11 11:06:40;;;;;;;3.78;2.65;;;18.30;49.30;;;13.85;79.56;97607.34;4904028;28;20265;-67
2022/11/11 11:09:39;;;;;;;3.50;2.80;;;18.60;48.70;;;14.04;75.87;97603.44;4906508;28;20339;-68
2022/11/11 11:12:36;;;;;;;3.95;2.80;;;18.70;47.80;;;14.34;74.80;97597.31;4892890;28;20303;-66
2022/11/11 11:15:07;;;;;;;3.53;2.50;;;19.20;46.70;;;14.55;76.20;97603.81;4903718;28;20497;-68
2022/11/11 11:18:09;;;;;;;3.83;2.33;;;19.60;46.30;;;14.75;72.75;97598.88;4921863;28;20320;-68
2022/11/11 11:20:36;;;;;;;3.58;2.75;;;19.90;45.20;;;14.87;76.11;97597.41;4939624;28;20448;-67
2022/11/11 11:23:02;;;;;;;4.57;2.67;;;19.90;44.90;;;15.05;75.28;97592.63;4920298;28;20312;-67
2022/11/11 11:25:32;;;;;;;3.00;2.40;;;20.20;44.20;;;15.21;73.74;97596.94;4923435;28;20537;-67
2022/11/11 11:28:21;;;;;;;5.50;2.45;;;20.10;44.10;;;15.36;70.10;97592.47;4907032;28;20778;-67
2022/11/11 11:31:09;;;;;;;3.35;2.47;;;20.20;44.50;;;15.44;69.43;97592.38;4926378;28;20682;-68
2022/11/11 11:33:57;;;;;;;4.35;2.40;;;20.10;44.80;;;15.49;71.05;97589.19;4912070;28;20822;-69
2022/11/11 11:36:29;;;;;;;2.40;2.05;;;20.10;45.10;;;15.64;71.88;97584.72;4926168;28;20289;-68
2022/11/11 11:38:55;;;;;;;2.83;2.30;;;20.50;44.50;;;15.70;72.54;97565.41;4900916;28;20381;-68
2022/11/11 11:41:40;;;;;;;3.33;2.28;;;20.10;45.00;;;15.67;68.88;97563.13;4891174;28;20284;-67
2022/11/11 11:44:29;;;;;;;4.55;2.60;;;19.80;45.60;;;15.61;68.10;97563.84;4921068;28;20579;-68